Terminal Aerodrome Forecast
Issued by NWS Duluth, MN

Home | Current Version | Previous Version | Text Only | Print | Product List | Glossary On
Versions: 1 2 3 4 5 6 7 8 9 10 11 12 13 14 15
701
FTUS43 KDLH 142339
TAFINL
TAF
KINL 142339Z 1500/1524 03007KT P6SM VCSH BKN080
     FM150500 35004KT P6SM VCSH OVC080
     FM151600 25004KT P6SM SCT200=

USA.gov is the U.S. government's official web portal to all federal, state and local government web resources and services.